Time;durP1;ratioP1;P1;durP2;ratioP2;P2;SDS_P1;SDS_P2;PMS_P1;PMS_P2;Temp;Humidity;BMP_temperature;BMP_pressure;BME280_temperature;BME280_humidity;BME280_pressure;Samples;Min_cycle;Max_cycle;Signal;HPM_P1;HPM_P2
2023/08/24 00:02:27;;;;;;;;;;;23.20;97.90;;;22.27;95.93;100199.75;9762852;29;97610;-89
2023/08/24 00:07:32;;;;;;;;;;;23.10;98.20;;;22.24;95.52;100197.50;9759869;29;98842;-89
2023/08/24 00:12:36;;;;;;;;;;;23.10;98.40;;;22.10;95.65;100194.31;9745235;29;98704;-90
2023/08/24 00:17:40;;;;;;;;;;;23.00;98.50;;;22.06;96.33;100201.22;9722705;29;98928;-90
2023/08/24 00:22:43;;;;;;;;;;;23.00;98.70;;;22.02;96.69;100200.91;9734355;29;96758;-89
2023/08/24 00:27:47;;;;;;;;;;;22.90;98.90;;;21.91;97.87;100185.53;9752885;29;97625;-90
2023/08/24 00:32:51;;;;;;;;;;;22.80;99.40;;;21.91;98.03;100185.53;9751677;29;97894;-90
2023/08/24 00:37:55;;;;;;;;;;;22.80;99.40;;;21.91;98.16;100207.19;9742025;29;98827;-90
2023/08/24 00:42:58;;;;;;;;;;;22.70;99.60;;;21.84;97.84;100206.53;9715581;29;98582;-90
2023/08/24 00:48:03;;;;;;;;;;;22.70;99.70;;;21.85;97.94;100203.56;9745018;29;98604;-89
2023/08/24 00:53:06;;;;;;;;;;;22.70;99.70;;;21.84;97.62;100195.69;9737549;29;99038;-89
2023/08/24 00:58:10;;;;;;;;;;;22.70;99.50;;;21.82;97.49;100205.91;9731916;29;98084;-89
2023/08/24 01:03:13;;;;;;;;;;;22.70;99.50;;;21.73;97.51;100200.09;9730659;29;98647;-90
2023/08/24 01:08:17;;;;;;;;;;;22.80;99.90;;;21.75;98.45;100208.78;9740443;29;96800;-90
2023/08/24 01:13:27;;;;;;;;;;;22.70;99.90;;;21.78;99.02;100218.31;9742700;29;98078;-90
2023/08/24 01:18:31;;;;;;;;;;;22.70;99.90;;;21.76;99.06;100205.00;9735782;29;98270;-89
2023/08/24 01:24:03;;;;;;;;;;;22.60;99.90;;;21.78;98.97;100188.56;9742332;29;97168;-90
2023/08/24 01:29:07;;;;;;;;;;;22.70;99.90;;;21.81;99.11;100191.56;9736975;29;97667;-90
2023/08/24 01:34:10;;;;;;;;;;;22.70;99.90;;;21.77;98.82;100184.19;9715049;29;98965;-90
2023/08/24 01:39:50;;;;;;;;;;;22.70;99.90;;;21.82;98.27;100187.00;9701629;30;98529;-90
2023/08/24 01:44:58;;;;;;;;;;;22.80;99.90;;;21.88;98.72;100196.84;9703608;29;97540;-89
2023/08/24 01:50:03;;;;;;;;;;;22.80;99.90;;;21.93;98.04;100196.94;9697861;30;99005;-89
2023/08/24 01:55:06;;;;;;;;;;;22.90;99.90;;;21.96;97.46;100184.81;9712848;29;99356;-89
2023/08/24 02:00:10;;;;;;;;;;;22.90;99.90;;;22.06;97.67;100196.63;9720652;29;96789;-90
2023/08/24 02:05:14;;;;;;;;;;;23.00;99.90;;;22.02;96.85;100184.66;9715202;29;96729;-90
2023/08/24 02:10:17;;;;;;;;;;;23.10;99.70;;;22.06;96.69;100191.22;9707803;29;96723;-90
2023/08/24 02:15:22;;;;;;;;;;;23.10;99.90;;;22.06;96.37;100187.69;9712553;29;98166;-89
2023/08/24 02:20:25;;;;;;;;;;;23.00;99.90;;;21.99;96.32;100179.72;9720349;29;98183;-90
2023/08/24 02:25:28;;;;;;;;;;;23.00;99.90;;;21.99;95.81;100177.03;9715031;29;97523;-90
2023/08/24 02:30:32;;;;;;;;;;;22.90;99.90;;;21.93;97.01;100178.00;9722686;29;97380;-89
2023/08/24 02:35:35;;;;;;;;;;;22.90;99.90;;;21.88;96.85;100172.50;9759528;29;96673;-89
2023/08/24 02:40:39;;;;;;;;;;;22.80;99.90;;;21.80;96.57;100164.78;9748453;29;98436;-90
2023/08/24 02:45:43;;;;;;;;;;;22.80;99.90;;;21.74;96.79;100166.56;9725541;29;96809;-90
2023/08/24 02:50:47;;;;;;;;;;;22.70;99.90;;;21.71;97.01;100172.47;9740111;29;98098;-90
2023/08/24 02:55:51;;;;;;;;;;;22.60;99.90;;;21.66;97.76;100171.56;9728877;29;98445;-90
2023/08/24 03:00:55;;;;;;;;;;;22.60;99.90;;;21.60;97.56;100179.56;9744031;29;97532;-90
2023/08/24 03:06:01;;;;;;;;;;;22.60;99.90;;;21.56;97.60;100172.97;9753459;29;97055;-90
2023/08/24 03:11:05;;;;;;;;;;;22.60;99.90;;;21.50;97.88;100173.94;9730576;29;97575;-90
2023/08/24 03:16:09;;;;;;;;;;;22.50;99.90;;;21.40;97.84;100172.91;9748797;29;99376;-90
2023/08/24 03:21:13;;;;;;;;;;;22.40;99.90;;;21.30;98.54;100178.94;9719709;29;99111;-90
2023/08/24 03:26:16;;;;;;;;;;;22.20;99.90;;;21.21;98.50;100174.94;9744292;29;98066;-90
2023/08/24 03:31:20;;;;;;;;;;;22.10;99.90;;;21.12;99.33;100169.09;9730657;29;97553;-90
2023/08/24 03:36:23;;;;;;;;;;;22.10;99.90;;;21.04;99.38;100175.66;9743528;29;96882;-89
2023/08/24 03:41:27;;;;;;;;;;;22.00;99.90;;;20.99;100.00;100178.28;9742931;29;97022;-90
2023/08/24 03:46:31;;;;;;;;;;;22.00;99.90;;;20.92;100.00;100182.94;9763626;29;97618;-90
2023/08/24 03:51:34;;;;;;;;;;;21.90;99.90;;;20.89;100.00;100193.44;9752283;29;96711;-89
2023/08/24 03:56:39;;;;;;;;;;;21.90;99.90;;;20.84;100.00;100191.41;9741503;29;96784;-90
2023/08/24 04:01:42;;;;;;;;;;;21.80;99.90;;;20.72;100.00;100196.00;9752535;29;96872;-89
2023/08/24 04:06:46;;;;;;;;;;;21.70;99.90;;;20.56;100.00;100203.72;9744415;29;97401;-89
2023/08/24 04:11:49;;;;;;;;;;;21.60;99.90;;;20.54;100.00;100203.16;9734155;29;100308;-90
2023/08/24 04:16:53;;;;;;;;;;;21.50;99.90;;;20.57;100.00;100208.09;9732813;29;99093;-89
2023/08/24 04:21:56;;;;;;;;;;;21.50;99.90;;;20.57;100.00;100210.78;9741975;29;98834;-90
2023/08/24 04:27:00;;;;;;;;;;;21.50;99.90;;;20.59;100.00;100207.84;9752758;29;98543;-90
2023/08/24 04:32:04;;;;;;;;;;;21.60;99.90;;;20.63;100.00;100211.75;9745273;29;98618;-90
2023/08/24 04:37:07;;;;;;;;;;;21.60;99.90;;;20.65;100.00;100214.19;9743064;29;96714;-90
2023/08/24 04:42:11;;;;;;;;;;;21.60;99.90;;;20.73;100.00;100221.94;9758127;29;97774;-89
2023/08/24 04:47:14;;;;;;;;;;;21.60;99.90;;;20.78;100.00;100208.56;9730408;29;98105;-88
2023/08/24 04:52:18;;;;;;;;;;;21.70;99.90;;;20.85;100.00;100220.06;9743035;29;98407;-89
2023/08/24 04:57:21;;;;;;;;;;;21.80;99.90;;;20.96;100.00;100215.72;9758367;29;98185;-89
2023/08/24 05:02:28;;;;;;;;;;;21.90;99.90;;;21.05;100.00;100208.91;9733426;29;96866;-91
2023/08/24 05:07:31;;;;;;;;;;;22.10;99.90;;;21.15;100.00;100221.81;9760299;29;96933;-90
2023/08/24 05:12:35;;;;;;;;;;;22.10;99.90;;;21.17;100.00;100220.53;9749866;29;98620;-90
2023/08/24 05:17:40;;;;;;;;;;;22.20;99.90;;;21.27;100.00;100217.22;9753752;29;98024;-88
2023/08/24 05:22:43;;;;;;;;;;;22.30;99.90;;;21.32;100.00;100209.25;9790927;29;96677;-87
2023/08/24 05:27:47;;;;;;;;;;;22.40;99.90;;;21.55;100.00;100219.19;9736260;29;98834;-89
2023/08/24 05:32:51;;;;;;;;;;;22.50;99.90;;;21.75;100.00;100221.47;9757995;29;97489;-91
2023/08/24 05:37:55;;;;;;;;;;;22.70;99.90;;;21.95;100.00;100218.34;9750661;29;97365;-92
2023/08/24 05:42:58;;;;;;;;;;;22.90;99.90;;;22.14;100.00;100217.94;9759084;29;98613;-89
2023/08/24 05:48:03;;;;;;;;;;;23.10;99.90;;;22.33;100.00;100215.00;9738246;29;96867;-90
2023/08/24 05:53:06;;;;;;;;;;;23.30;99.90;;;22.55;100.00;100210.50;9741619;29;97192;-91
2023/08/24 05:58:10;;;;;;;;;;;23.60;99.90;;;22.71;100.00;100208.84;9742071;29;98897;-91
2023/08/24 06:03:13;;;;;;;;;;;23.70;99.90;;;22.88;100.00;100212.41;9715843;29;98287;-90
2023/08/24 06:08:17;;;;;;;;;;;23.90;99.90;;;23.10;100.00;100212.44;9733399;29;98256;-90
2023/08/24 06:13:20;;;;;;;;;;;24.10;99.90;;;23.22;99.99;100212.34;9738529;29;98804;-90
2023/08/24 06:18:24;;;;;;;;;;;24.20;99.90;;;23.39;100.00;100229.38;9757162;29;97495;-89
2023/08/24 06:23:28;;;;;;;;;;;24.40;99.90;;;23.57;100.00;100230.09;9743478;29;97206;-89
2023/08/24 06:28:31;;;;;;;;;;;24.60;99.90;;;23.72;100.00;100233.06;9757420;29;98838;-89
2023/08/24 06:33:36;;;;;;;;;;;24.70;99.90;;;23.80;99.06;100229.06;9735679;29;98586;-89
2023/08/24 06:38:39;;;;;;;;;;;24.90;99.90;;;23.97;98.29;100233.31;9740631;29;96894;-89
2023/08/24 06:43:43;;;;;;;;;;;25.10;99.90;;;24.11;97.05;100225.63;9753308;29;97471;-89
2023/08/24 06:48:46;;;;;;;;;;;25.20;99.90;;;24.30;95.43;100226.88;9749376;29;98550;-90
2023/08/24 06:53:50;;;;;;;;;;;25.40;99.90;;;24.41;94.49;100218.84;9747712;29;98933;-89
2023/08/24 06:58:54;;;;;;;;;;;25.50;99.90;;;24.53;91.89;100214.88;9768093;29;96788;-88
2023/08/24 07:03:57;;;;;;;;;;;25.60;99.90;;;24.66;90.79;100215.53;9761551;29;96690;-89
2023/08/24 07:09:03;;;;;;;;;;;25.70;99.90;;;24.87;88.33;100221.91;9738655;29;97512;-89
2023/08/24 07:14:06;;;;;;;;;;;25.90;99.90;;;25.00;87.06;100216.00;9741966;29;97272;-89
2023/08/24 07:19:10;;;;;;;;;;;26.10;99.90;;;25.21;88.37;100220.53;9737996;29;98315;-89
2023/08/24 07:24:13;;;;;;;;;;;26.30;99.90;;;25.44;85.42;100218.47;9745703;29;97307;-89
2023/08/24 07:29:17;;;;;;;;;;;26.50;99.90;;;25.70;84.73;100222.09;9751948;29;96991;-88
2023/08/24 07:34:24;;;;;;;;;;;26.80;99.90;;;25.97;79.45;100213.75;9733694;29;98988;-88
2023/08/24 07:39:27;;;;;;;;;;;27.00;99.10;;;26.22;78.15;100213.81;9741573;29;98485;-89
2023/08/24 07:44:31;;;;;;;;;;;27.30;98.50;;;26.53;77.92;100222.84;9751633;29;99966;-89
2023/08/24 07:49:34;;;;;;;;;;;27.50;98.10;;;26.77;74.33;100216.81;9753717;29;97012;-88
2023/08/24 07:54:38;;;;;;;;;;;27.70;96.90;;;26.89;71.59;100209.97;9737609;29;98204;-89
2023/08/24 07:59:42;;;;;;;;;;;27.90;96.50;;;27.07;70.24;100215.97;9759961;29;96778;-88
2023/08/24 08:04:45;;;;;;;;;;;28.10;96.10;;;27.21;68.71;100211.56;9739678;29;97464;-89
2023/08/24 08:09:49;;;;;;;;;;;28.20;95.40;;;27.28;67.02;100216.72;9738846;29;96725;-88
2023/08/24 08:14:52;;;;;;;;;;;28.30;94.70;;;27.29;65.27;100208.28;9738787;29;98871;-88
2023/08/24 08:19:57;;;;;;;;;;;28.40;94.50;;;27.45;66.71;100209.84;9751465;29;97836;-88
2023/08/24 08:25:01;;;;;;;;;;;28.50;94.40;;;27.55;65.82;100219.09;9726982;29;98751;-87
2023/08/24 08:30:07;;;;;;;;;;;28.60;93.80;;;27.77;65.49;100216.84;9752718;29;96755;-89
2023/08/24 08:35:11;;;;;;;;;;;28.80;93.50;;;28.02;63.63;100212.31;9742987;29;98039;-87
2023/08/24 08:40:14;;;;;;;;;;;29.00;92.40;;;28.17;63.66;100213.00;9727517;29;96751;-89
2023/08/24 08:45:18;;;;;;;;;;;29.20;92.40;;;28.29;61.56;100209.91;9732677;29;96988;-88
2023/08/24 08:50:22;;;;;;;;;;;29.40;92.10;;;28.49;60.44;100215.25;9740750;29;97644;-88
2023/08/24 08:55:26;;;;;;;;;;;29.50;91.50;;;28.54;57.71;100207.00;9744994;29;96595;-88
2023/08/24 09:00:29;;;;;;;;;;;29.60;90.70;;;28.67;57.55;100204.69;9751855;29;97456;-88
2023/08/24 09:05:33;;;;;;;;;;;29.70;89.60;;;28.83;56.61;100200.72;9726430;29;98426;-88
2023/08/24 09:10:36;;;;;;;;;;;29.90;89.60;;;29.10;56.43;100199.38;9730010;29;98039;-90
2023/08/24 09:15:40;;;;;;;;;;;30.10;86.90;;;29.19;52.29;100197.63;9731082;29;98110;-89
2023/08/24 09:20:43;;;;;;;;;;;30.20;82.60;;;29.23;51.95;100196.75;9750661;29;98484;-90
2023/08/24 09:25:47;;;;;;;;;;;30.30;83.90;;;29.24;46.00;100192.91;9715980;29;96984;-90
2023/08/24 09:30:54;;;;;;;;;;;30.30;79.20;;;29.42;43.65;100183.09;9717087;29;97405;-89
2023/08/24 09:36:03;;;;;;;;;;;30.40;70.60;;;29.41;43.30;100181.50;9732586;29;98525;-90
2023/08/24 09:41:07;;;;;;;;;;;30.40;68.90;;;29.48;44.13;100173.72;9727254;29;97647;-90
2023/08/24 09:46:10;;;;;;;;;;;30.40;70.70;;;29.57;43.37;100173.94;9741369;29;98259;-91
2023/08/24 09:51:14;;;;;;;;;;;30.50;69.20;;;29.67;42.91;100178.44;9748123;29;96928;-91
2023/08/24 09:56:19;;;;;;;;;;;30.50;68.80;;;29.85;43.04;100174.88;9734082;29;98663;-90
2023/08/24 10:01:24;;;;;;;;;;;30.70;68.70;;;29.96;41.04;100173.63;9734915;29;99366;-90
2023/08/24 10:06:29;;;;;;;;;;;30.80;66.60;;;30.05;40.44;100163.63;9741333;29;97345;-91
2023/08/24 10:11:36;;;;;;;;;;;31.00;65.10;;;30.22;40.85;100175.97;9726026;29;98087;-91
2023/08/24 10:16:41;;;;;;;;;;;31.20;68.70;;;30.30;40.77;100180.78;9757980;29;97270;-90
2023/08/24 10:21:45;;;;;;;;;;;31.30;66.20;;;30.47;41.09;100172.84;9752362;29;96809;-91
2023/08/24 10:26:49;;;;;;;;;;;31.50;65.90;;;30.69;39.14;100155.72;9746135;29;97850;-91
2023/08/24 10:31:54;;;;;;;;;;;31.70;64.00;;;30.89;39.21;100155.34;9747779;29;96874;-90
2023/08/24 10:37:06;;;;;;;;;;;31.90;65.00;;;30.94;38.83;100146.19;9742787;29;97061;-90
2023/08/24 10:42:13;;;;;;;;;;;32.00;64.90;;;31.02;38.11;100139.19;9738993;29;96661;-90
2023/08/24 10:47:17;;;;;;;;;;;32.10;64.20;;;31.12;37.90;100139.78;9750370;29;96559;-91
2023/08/24 10:52:23;;;;;;;;;;;32.20;63.40;;;31.15;37.42;100128.19;9754911;29;97523;-89
2023/08/24 10:57:36;;;;;;;;;;;32.30;60.90;;;31.31;36.79;100125.97;9727694;29;97611;-89
2023/08/24 11:02:49;;;;;;;;;;;32.40;59.30;;;31.41;35.81;100131.22;9725884;29;96650;-90
2023/08/24 11:08:11;;;;;;;;;;;32.40;58.20;;;31.46;35.95;100130.31;9747789;29;97550;-91
2023/08/24 11:13:16;;;;;;;;;;;32.50;60.00;;;31.45;36.21;100123.19;9764447;29;96615;-91
2023/08/24 11:18:22;;;;;;;;;;;32.50;59.80;;;31.46;37.58;100124.81;9747842;29;97034;-90
2023/08/24 11:23:26;;;;;;;;;;;32.50;60.30;;;31.58;38.43;100122.34;9740209;29;97608;-90
2023/08/24 11:28:31;;;;;;;;;;;32.60;60.80;;;31.69;36.82;100123.72;9725873;29;96573;-90
2023/08/24 11:33:35;;;;;;;;;;;32.60;58.60;;;31.74;36.52;100119.25;9725912;29;97047;-89
2023/08/24 11:38:42;;;;;;;;;;;32.70;58.40;;;31.62;35.43;100117.06;9728663;29;96781;-89
2023/08/24 11:43:48;;;;;;;;;;;32.60;57.40;;;31.57;35.62;100114.41;9739964;29;97091;-90
2023/08/24 11:48:52;;;;;;;;;;;32.50;57.60;;;31.70;36.35;100110.81;9741838;29;101243;-89
2023/08/24 11:53:56;;;;;;;;;;;32.50;59.20;;;31.91;36.07;100108.44;9745443;29;97767;-90
2023/08/24 11:59:00;;;;;;;;;;;32.70;58.70;;;32.12;34.59;100108.72;9727491;29;97913;-89
2023/08/24 12:04:03;;;;;;;;;;;32.90;56.80;;;32.28;33.95;100100.91;9735665;29;98551;-88
2023/08/24 12:09:07;;;;;;;;;;;33.10;56.30;;;32.37;33.93;100105.34;9754768;29;96701;-90
2023/08/24 12:14:17;;;;;;;;;;;33.20;56.80;;;32.47;33.45;100101.50;9745043;29;96779;-90
2023/08/24 12:19:22;;;;;;;;;;;33.30;55.60;;;32.48;32.68;100092.13;9755375;29;96756;-90
2023/08/24 12:24:25;;;;;;;;;;;33.40;54.10;;;32.43;33.06;100079.31;9761107;29;97145;-89
2023/08/24 12:29:29;;;;;;;;;;;33.40;54.70;;;32.49;33.81;100080.81;9731193;29;100702;-90
2023/08/24 12:34:32;;;;;;;;;;;33.50;54.90;;;32.58;34.29;100061.59;9737504;29;97740;-91
2023/08/24 12:39:37;;;;;;;;;;;33.60;55.90;;;32.63;32.62;100075.22;9747985;29;97712;-90
2023/08/24 12:44:40;;;;;;;;;;;33.70;55.30;;;32.81;33.83;100056.00;9746357;29;97881;-90
2023/08/24 12:49:44;;;;;;;;;;;33.80;55.20;;;32.96;31.93;100044.56;9734433;29;97023;-90
2023/08/24 12:54:47;;;;;;;;;;;34.00;53.20;;;33.15;33.36;100034.06;9746528;29;96677;-91
2023/08/24 12:59:51;;;;;;;;;;;34.10;55.20;;;33.27;32.22;100034.22;9748824;29;97396;-90
2023/08/24 13:05:01;;;;;;;;;;;34.20;53.10;;;33.19;32.33;100040.56;9745879;29;98474;-90
2023/08/24 13:10:06;;;;;;;;;;;34.10;53.90;;;33.04;32.66;100035.50;9756327;29;97629;-90
2023/08/24 13:15:11;;;;;;;;;;;33.80;53.70;;;32.88;33.28;100026.13;9747270;29;98423;-89
2023/08/24 13:20:16;;;;;;;;;;;33.70;54.70;;;32.85;33.03;100013.75;9744140;29;99963;-91
2023/08/24 13:25:19;;;;;;;;;;;33.80;54.20;;;32.91;33.64;100006.19;9753536;29;98554;-92
2023/08/24 13:30:23;;;;;;;;;;;34.00;54.90;;;33.07;33.41;100006.53;9752077;29;98566;-92
2023/08/24 13:35:26;;;;;;;;;;;34.20;54.00;;;33.26;33.43;100002.34;9731535;29;98672;-92
2023/08/24 13:40:30;;;;;;;;;;;34.50;54.00;;;33.46;32.71;100002.84;9734147;29;100770;-91
2023/08/24 13:45:34;;;;;;;;;;;34.70;53.60;;;33.66;32.29;99999.41;9732456;29;98709;-90
2023/08/24 13:50:40;;;;;;;;;;;34.80;52.50;;;33.61;32.50;100007.84;9736703;29;98324;-90
2023/08/24 13:55:44;;;;;;;;;;;34.70;52.70;;;33.53;31.90;100001.22;9748383;29;100697;-91
2023/08/24 14:00:47;;;;;;;;;;;34.50;53.60;;;33.46;32.77;99991.81;9743357;29;97252;-91
2023/08/24 14:05:57;;;;;;;;;;;34.40;53.20;;;33.48;31.34;99992.31;9758949;29;97661;-91
2023/08/24 14:11:01;;;;;;;;;;;34.50;52.10;;;33.55;31.96;99987.13;9745727;29;96728;-89
2023/08/24 14:16:05;;;;;;;;;;;34.50;52.80;;;33.63;30.69;99986.28;9723991;29;97641;-90
2023/08/24 14:21:10;;;;;;;;;;;34.80;51.20;;;33.72;31.29;99978.81;9731250;29;99000;-92
2023/08/24 14:26:18;;;;;;;;;;;35.20;52.90;;;34.24;31.81;99981.41;9735470;29;97304;-91
2023/08/24 14:31:21;;;;;;;;;;;36.10;52.40;;;34.97;29.85;99980.41;9737821;29;98843;-91
2023/08/24 14:36:25;;;;;;;;;;;37.00;50.10;;;35.69;29.03;99973.59;9705322;29;98098;-90
2023/08/24 14:41:29;;;;;;;;;;;37.90;48.80;;;36.32;27.58;99971.41;9753592;29;98371;-91
2023/08/24 14:46:33;;;;;;;;;;;38.50;49.10;;;36.90;27.50;99965.75;9742932;29;98784;-92
2023/08/24 14:51:37;;;;;;;;;;;39.00;49.50;;;37.56;26.21;99978.31;9732562;29;97162;-93
2023/08/24 14:56:41;;;;;;;;;;;39.60;48.30;;;37.85;24.81;99975.19;9728818;29;96781;-91
2023/08/24 15:01:45;;;;;;;;;;;39.80;44.40;;;38.05;25.38;99962.19;9747836;29;98811;-92
2023/08/24 15:06:48;;;;;;;;;;;39.80;45.00;;;38.03;25.43;99959.78;9734655;29;99237;-92
2023/08/24 15:11:52;;;;;;;;;;;39.80;48.00;;;38.03;25.45;99959.78;9735401;29;98263;-90
2023/08/24 15:16:55;;;;;;;;;;;39.80;46.10;;;38.16;25.83;99966.06;9738749;29;98483;-92
2023/08/24 15:21:59;;;;;;;;;;;40.00;47.50;;;38.22;25.52;99972.94;9751552;29;97369;-91
2023/08/24 15:27:03;;;;;;;;;;;40.00;46.90;;;38.18;24.98;99965.69;9745565;29;98210;-90
2023/08/24 15:32:07;;;;;;;;;;;39.90;46.80;;;38.00;25.11;99966.03;9736834;29;98310;-91
2023/08/24 15:37:10;;;;;;;;;;;39.80;47.20;;;37.90;26.26;99961.03;9757589;29;96883;-92
2023/08/24 15:42:13;;;;;;;;;;;39.60;47.20;;;37.80;25.75;99956.00;9756106;29;97704;-91
2023/08/24 15:47:17;;;;;;;;;;;39.40;45.90;;;37.63;25.83;99950.78;9735843;29;97308;-91
2023/08/24 15:52:20;;;;;;;;;;;39.10;45.20;;;37.31;26.36;99936.84;9754876;29;97017;-94
2023/08/24 15:57:24;;;;;;;;;;;38.70;46.70;;;37.06;25.95;99930.59;9757103;29;98399;-92
2023/08/24 16:02:27;;;;;;;;;;;38.50;45.70;;;36.87;25.50;99931.22;9762051;29;96947;-91
2023/08/24 16:07:32;;;;;;;;;;;38.20;44.80;;;36.61;26.71;99941.88;9748314;29;97639;-92
2023/08/24 16:12:35;;;;;;;;;;;37.80;45.70;;;36.26;27.06;99938.78;9744998;29;97108;-93
2023/08/24 16:17:42;;;;;;;;;;;37.40;46.60;;;35.81;27.94;99934.94;9752231;29;97461;-92
2023/08/24 16:22:45;;;;;;;;;;;36.90;47.10;;;35.37;28.46;99933.75;9751259;29;97899;-91
2023/08/24 16:27:49;;;;;;;;;;;36.40;47.30;;;34.99;29.08;99953.28;9762242;29;98600;-91
2023/08/24 16:32:53;;;;;;;;;;;35.90;48.10;;;34.53;29.60;99941.22;9768078;29;96776;-91
2023/08/24 16:37:57;;;;;;;;;;;35.40;48.70;;;34.12;30.36;99933.63;9741777;29;97404;-90
2023/08/24 16:43:00;;;;;;;;;;;35.00;49.50;;;33.67;31.33;99936.84;9740086;29;98394;-90
2023/08/24 16:48:05;;;;;;;;;;;34.50;50.00;;;32.98;32.64;99948.72;9760603;29;96783;-90
2023/08/24 16:53:09;;;;;;;;;;;33.80;51.20;;;32.36;35.33;99940.69;9751214;29;97258;-91
2023/08/24 16:58:12;;;;;;;;;;;33.20;52.10;;;31.52;38.80;99934.09;9759922;29;97008;-90
2023/08/24 17:03:16;;;;;;;;;;;32.60;53.80;;;30.79;40.27;99929.81;9752730;29;96832;-90
2023/08/24 17:08:19;;;;;;;;;;;32.00;55.00;;;30.13;41.71;99936.66;9743475;29;98726;-90
2023/08/24 17:13:23;;;;;;;;;;;31.30;56.90;;;29.51;42.84;99956.88;9741625;29;98155;-89
2023/08/24 17:18:26;;;;;;;;;;;30.60;57.60;;;29.04;43.88;99958.72;9763748;29;97273;-90
2023/08/24 17:23:30;;;;;;;;;;;30.10;58.80;;;28.65;44.48;99949.91;9745537;29;96709;-90
2023/08/24 17:28:34;;;;;;;;;;;29.70;59.10;;;28.29;44.90;99939.41;9754000;29;98391;-90
2023/08/24 17:33:38;;;;;;;;;;;29.30;59.70;;;28.08;45.19;99935.31;9735269;29;98682;-90
2023/08/24 17:38:41;;;;;;;;;;;29.10;59.80;;;27.77;45.84;99942.97;9733893;29;97708;-90
2023/08/24 17:43:45;;;;;;;;;;;28.80;59.90;;;27.48;46.79;99960.94;9725031;29;96823;-90
2023/08/24 17:48:48;;;;;;;;;;;28.50;60.40;;;27.19;47.30;99960.09;9748006;29;98496;-91
2023/08/24 17:53:52;;;;;;;;;;;28.30;60.50;;;27.01;47.18;99956.06;9746474;29;98308;-90
2023/08/24 17:58:55;;;;;;;;;;;28.00;61.60;;;26.79;48.16;99955.66;9753813;29;98301;-91
2023/08/24 18:04:01;;;;;;;;;;;27.80;63.40;;;26.60;49.96;99961.75;9734160;29;98857;-91
2023/08/24 18:09:06;;;;;;;;;;;27.50;65.50;;;26.33;51.48;99962.09;9729515;29;97727;-90
2023/08/24 18:14:10;;;;;;;;;;;27.20;67.60;;;26.14;52.25;99974.66;9732897;29;97575;-91
2023/08/24 18:19:15;;;;;;;;;;;26.90;68.30;;;25.92;52.96;99993.25;9730558;29;97955;-90
2023/08/24 18:24:19;;;;;;;;;;;26.70;68.90;;;25.73;53.96;100007.41;9738187;29;96937;-90
2023/08/24 18:29:24;;;;;;;;;;;26.50;69.90;;;25.58;54.32;100010.91;9757810;29;96991;-91
2023/08/24 18:34:27;;;;;;;;;;;26.30;70.00;;;25.47;55.15;100013.88;9735517;29;96992;-94
2023/08/24 18:39:31;;;;;;;;;;;26.20;71.00;;;25.34;55.37;99999.72;9753732;29;96578;-94
2023/08/24 18:44:35;;;;;;;;;;;26.10;71.10;;;25.25;55.61;100006.81;9740994;29;97007;-93
2023/08/24 18:49:38;;;;;;;;;;;26.00;71.40;;;25.09;55.75;100003.22;9735526;29;98442;-94
2023/08/24 18:54:42;;;;;;;;;;;25.90;71.40;;;25.01;55.84;100000.16;9745404;29;96706;-95
2023/08/24 18:59:46;;;;;;;;;;;25.80;71.30;;;24.92;56.02;99989.00;9758604;29;96940;-94
2023/08/24 19:04:49;;;;;;;;;;;25.70;71.40;;;24.87;55.67;99999.03;9753915;29;97292;-95
2023/08/24 19:09:53;;;;;;;;;;;25.70;71.60;;;24.73;56.73;99985.97;9759203;29;96676;-95
2023/08/24 19:14:56;;;;;;;;;;;25.60;72.10;;;24.64;56.81;99995.69;9745970;29;96680;-92
2023/08/24 19:20:00;;;;;;;;;;;25.40;72.30;;;24.58;57.43;100012.25;9758021;29;96910;-92
2023/08/24 19:25:05;;;;;;;;;;;25.40;72.60;;;24.49;57.02;100009.22;9752703;29;96725;-92
2023/08/24 19:30:09;;;;;;;;;;;25.30;72.50;;;24.38;57.18;100011.06;9752525;29;97954;-92
2023/08/24 19:35:12;;;;;;;;;;;25.20;72.40;;;24.37;56.52;100012.16;9748706;29;100012;-92
2023/08/24 19:40:16;;;;;;;;;;;25.10;71.80;;;24.36;56.92;100010.53;9744582;29;96584;-92
2023/08/24 19:45:20;;;;;;;;;;;25.20;71.40;;;24.37;56.64;100008.63;9759877;29;97223;-92
2023/08/24 19:50:23;;;;;;;;;;;25.20;71.80;;;24.32;57.27;100024.84;9737514;29;96828;-91
2023/08/24 19:55:27;;;;;;;;;;;25.20;72.00;;;24.35;57.32;100029.78;9763775;29;98135;-93
2023/08/24 20:00:32;;;;;;;;;;;25.20;71.60;;;24.27;58.28;100022.91;9758507;29;97463;-92
2023/08/24 20:05:36;;;;;;;;;;;25.20;72.80;;;24.23;59.32;100049.78;9770330;29;96695;-92
2023/08/24 20:10:40;;;;;;;;;;;25.10;72.70;;;24.04;60.31;100040.41;9737181;29;98221;-93
2023/08/24 20:15:44;;;;;;;;;;;25.00;72.70;;;23.86;61.45;100055.19;9742596;29;98250;-92
2023/08/24 20:20:47;;;;;;;;;;;24.80;75.70;;;23.57;62.49;100041.09;9738768;29;98957;-87
2023/08/24 20:25:51;;;;;;;;;;;24.50;76.30;;;23.48;62.86;100051.56;9742242;29;98670;-87
2023/08/24 20:30:55;;;;;;;;;;;24.30;76.30;;;23.37;63.78;100057.97;9733780;29;98345;-87
2023/08/24 20:36:00;;;;;;;;;;;24.20;76.80;;;23.27;64.32;100057.03;9739905;29;97762;-87
2023/08/24 20:41:03;;;;;;;;;;;24.10;77.40;;;23.15;65.25;100049.03;9749881;29;96841;-88
2023/08/24 20:46:07;;;;;;;;;;;23.90;77.70;;;23.03;66.26;100051.91;9744504;29;96979;-88
2023/08/24 20:51:10;;;;;;;;;;;23.90;78.70;;;22.84;67.13;100050.53;9741688;29;97987;-87
2023/08/24 20:56:14;;;;;;;;;;;23.70;80.00;;;22.73;66.78;100046.06;9728667;29;97362;-88
2023/08/24 21:01:18;;;;;;;;;;;23.60;79.20;;;22.66;67.75;100057.91;9740337;29;97656;-87
2023/08/24 21:06:21;;;;;;;;;;;23.50;80.40;;;22.58;67.37;100050.22;9738762;29;99083;-87
2023/08/24 21:11:25;;;;;;;;;;;23.40;79.10;;;22.53;67.07;100042.03;9734527;29;96755;-88
2023/08/24 21:16:30;;;;;;;;;;;23.40;78.80;;;22.45;68.56;100039.75;9719357;29;97004;-87
2023/08/24 21:21:34;;;;;;;;;;;23.40;80.50;;;22.39;68.73;100046.16;9734461;29;97760;-88
2023/08/24 21:26:38;;;;;;;;;;;23.30;80.10;;;22.35;69.26;100045.03;9745889;29;97340;-88
2023/08/24 21:31:41;;;;;;;;;;;23.20;81.20;;;22.31;69.29;100043.88;9756045;29;98191;-88
2023/08/24 21:36:47;;;;;;;;;;;23.20;80.70;;;22.22;71.11;100029.97;9745960;29;97122;-88
2023/08/24 21:41:53;;;;;;;;;;;23.10;83.10;;;22.04;71.78;100019.38;9739307;29;98693;-88
2023/08/24 21:46:56;;;;;;;;;;;23.00;83.70;;;21.94;71.94;100022.72;9731161;29;101131;-88
2023/08/24 21:52:00;;;;;;;;;;;22.80;83.60;;;21.83;72.79;100015.50;9750994;29;97579;-88
2023/08/24 21:57:06;;;;;;;;;;;22.70;84.50;;;21.74;73.95;100012.41;9738603;29;98227;-88
2023/08/24 22:02:10;;;;;;;;;;;22.60;85.30;;;21.63;73.65;99999.78;9740667;29;96968;-87
2023/08/24 22:07:14;;;;;;;;;;;22.50;84.80;;;21.55;74.40;99982.09;9742824;29;97322;-88
2023/08/24 22:12:17;;;;;;;;;;;22.40;85.30;;;21.55;73.84;99979.38;9733855;29;97731;-88
2023/08/24 22:17:21;;;;;;;;;;;22.40;84.70;;;21.49;73.70;99982.25;9742079;29;99001;-87
2023/08/24 22:22:24;;;;;;;;;;;22.40;84.10;;;21.52;73.70;99976.34;9748828;29;97634;-89
2023/08/24 22:27:29;;;;;;;;;;;22.40;84.60;;;21.46;74.41;99972.72;9736567;29;96829;-87
2023/08/24 22:32:33;;;;;;;;;;;22.40;84.70;;;21.47;74.22;99969.00;9722820;29;97375;-89
2023/08/24 22:37:37;;;;;;;;;;;22.40;84.60;;;21.44;75.09;99974.88;9728103;29;98736;-87
2023/08/24 22:42:40;;;;;;;;;;;22.40;86.00;;;21.39;74.59;99982.88;9737346;29;98815;-88
2023/08/24 22:47:44;;;;;;;;;;;22.30;85.00;;;21.31;75.41;99986.00;9721255;29;97380;-89
2023/08/24 22:52:47;;;;;;;;;;;22.20;86.20;;;21.25;76.58;99982.34;9736842;29;97439;-88
2023/08/24 22:57:51;;;;;;;;;;;22.20;87.00;;;21.14;77.05;99966.19;9726905;29;97344;-89
2023/08/24 23:02:55;;;;;;;;;;;22.10;87.10;;;21.09;77.38;99978.53;9739139;29;97642;-88